Lilly Bolten — A8TJ5 — position and weather

sailwx.info

Track history (hours):
 
Tides and Currents Weather Stations Pressure Air Temp Water Temp Dewpoint Dewpoint Depression Visibility Wind Speed Wind Dir Waves Ship Positions

Lilly Bolten

Last reported at 2017-Oct-13 01:33 UTC. Time now 2017-Oct-19 22:10 UTC.
Position N 37°31' W 030°25'.

Length 180 m; draft 9.9 m.

Type: Cargo ship. MMSI: 636091829.

Date/timePositionNaut miles runAvg speedWind from/ knotsBaromVisibWave heightAir tempDewpointWater temp
2017-Oct-13 01:33N 37°31' W 030°25'1 9.7
2017-Oct-13 01:30N 37°30' W 030°25'510.0
2017-Oct-13 00:59N 37°29' W 030°18'510.1
2017-Oct-13 00:28N 37°27' W 030°12'610.4
2017-Oct-12 23:52N 37°25' W 030°05'2210.4
2017-Oct-12 21:46N 37°20' W 029°38'310.5
2017-Oct-12 21:29N 37°19' W 029°34'610.3
2017-Oct-12 20:52N 37°17' W 029°27'510.3
2017-Oct-12 20:25N 37°16' W 029°21'610.4
2017-Oct-12 19:48N 37°14' W 029°14'410.3
2017-Oct-12 19:24N 37°12' W 029°09'410.2
2017-Oct-12 19:00N 37°11' W 029°04'910.3
2017-Oct-12 18:10N 37°08' W 028°54'210.3
2017-Oct-12 17:59N 37°08' W 028°52'3510.6
2017-Oct-12 14:39N 36°57' W 028°10'310.6
2017-Oct-12 14:23N 36°56' W 028°06'1110.4
2017-Oct-12 13:20N 36°53' W 027°53'610.5
2017-Oct-12 12:46N 36°51' W 027°46'310.5
2017-Oct-12 12:26N 36°50' W 027°42'510.4
2017-Oct-12 12:00N 36°48' W 027°37'710.4
2017-Oct-12 11:17N 36°46' W 027°28'310.3
2017-Oct-12 10:59N 36°45' W 027°24'610.3
2017-Oct-12 10:23N 36°44' W 027°17'410.5
2017-Oct-12 10:00N 36°42' W 027°12'2910.6
2017-Oct-12 07:15N 36°34' W 026°37'810.7
2017-Oct-12 06:29N 36°31' W 026°27'1211.0
2017-Oct-12 05:24N 36°27' W 026°13'411.1
2017-Oct-12 05:00N 36°26' W 026°08'510.8
2017-Oct-12 04:30N 36°24' W 026°02'510.9
2017-Oct-12 04:00N 36°23' W 025°55'510.7
2017-Oct-12 03:30N 36°21' W 025°49'510.8
2017-Oct-12 03:00N 36°19' W 025°43'510.8
2017-Oct-12 02:30N 36°18' W 025°36'611.0
2017-Oct-12 02:00N 36°16' W 025°30'611.2
2017-Oct-12 01:30N 36°14' W 025°23'511.0
2017-Oct-12 01:00N 36°13' W 025°17'611.0
2017-Oct-12 00:30N 36°11' W 025°10'511.0
2017-Oct-12 00:00N 36°10' W 025°03'611.2
2017-Oct-11 23:30N 36°10' W 024°57'611.3
2017-Oct-11 23:00N 36°10' W 024°49'611.4
2017-Oct-11 22:30N 36°10' W 024°42'611.3
2017-Oct-11 22:00N 36°10' W 024°35'611.1
2017-Oct-11 21:30N 36°10' W 024°29'611.1
2017-Oct-11 21:00N 36°10' W 024°22'611.0
2017-Oct-11 20:30N 36°10' W 024°15'611.2
2017-Oct-11 20:00N 36°10' W 024°08'611.0
2017-Oct-11 19:30N 36°10' W 024°01'33910.9
2017-Oct-10 12:21N 36°04' W 017°01'4710.8
2017-Oct-10 07:59N 36°03' W 016°03'510.4
2017-Oct-10 07:29N 36°04' W 015°56'510.8
2017-Oct-10 07:00N 36°04' W 015°50'1211.0
2017-Oct-10 05:54N 36°04' W 015°35'410.8
2017-Oct-10 05:30N 36°04' W 015°30'710.8
2017-Oct-10 04:52N 36°04' W 015°21'510.9
2017-Oct-10 04:25N 36°04' W 015°15'610.7
2017-Oct-10 03:52N 36°04' W 015°08'410.7
2017-Oct-10 03:30N 36°04' W 015°03'510.9
2017-Oct-10 03:00N 36°04' W 014°56'611.1
2017-Oct-10 02:30N 36°04' W 014°49'511.0
2017-Oct-10 02:00N 36°04' W 014°43'610.8
2017-Oct-10 01:29N 36°03' W 014°36'511.1
2017-Oct-10 01:00N 36°03' W 014°29'611.1
2017-Oct-10 00:30N 36°03' W 014°22'610.8
2017-Oct-09 23:59N 36°03' W 014°15'510.7
2017-Oct-09 23:30N 36°03' W 014°09'510.9
2017-Oct-09 23:00N 36°03' W 014°02'611.1
2017-Oct-09 22:30N 36°03' W 013°55'511.1
2017-Oct-09 22:00N 36°03' W 013°48'611.0
2017-Oct-09 21:30N 36°03' W 013°42'510.9
2017-Oct-09 21:00N 36°03' W 013°35'611.0
2017-Oct-09 20:30N 36°03' W 013°28'611.2
2017-Oct-09 20:00N 36°03' W 013°21'611.0
2017-Oct-09 19:30N 36°03' W 013°14'510.7
2017-Oct-09 19:00N 36°03' W 013°08'510.7
2017-Oct-09 18:30N 36°03' W 013°01'510.7
2017-Oct-09 18:00N 36°03' W 012°54'510.9
2017-Oct-09 17:30N 36°03' W 012°48'510.8
2017-Oct-09 17:00N 36°03' W 012°41'511.0
2017-Oct-09 16:30N 36°02' W 012°34'610.9
2017-Oct-09 16:00N 36°02' W 012°27'510.7
2017-Oct-09 15:30N 36°02' W 012°21'510.8
2017-Oct-09 15:00N 36°02' W 012°14'510.9
2017-Oct-09 14:30N 36°02' W 012°08'510.9
2017-Oct-09 14:00N 36°02' W 012°01'510.5
2017-Oct-09 13:30N 36°01' W 011°54'510.8
2017-Oct-09 13:00N 36°01' W 011°48'611.1
2017-Oct-09 12:30N 36°01' W 011°41'611.2
2017-Oct-09 12:00N 36°01' W 011°34'510.8
2017-Oct-09 11:30N 36°01' W 011°27'611.0
2017-Oct-09 11:00N 36°01' W 011°20'611.0
2017-Oct-09 10:30N 36°01' W 011°14'611.3
2017-Oct-09 10:00N 36°01' W 011°07'611.3
2017-Oct-09 09:30N 36°01' W 010°60'611.5
2017-Oct-09 09:00N 35°60' W 010°53'611.4
2017-Oct-09 08:30N 35°59' W 010°46'510.6
2017-Oct-09 08:00N 36°01' W 010°39'611.7
2017-Oct-09 07:30N 36°01' W 010°32'611.7
2017-Oct-09 07:00N 36°01' W 010°25'611.6
2017-Oct-09 06:30N 36°01' W 010°18'611.4
2017-Oct-09 06:00N 36°01' W 010°11'611.2
2017-Oct-09 05:30N 36°01' W 010°04'611.4
2017-Oct-09 05:00N 36°01' W 009°57'611.4
2017-Oct-09 04:30N 36°01' W 009°50'511.0
2017-Oct-09 04:00N 36°01' W 009°43'610.9
2017-Oct-09 03:30N 36°01' W 009°36'611.4
2017-Oct-09 03:00N 36°00' W 009°29'510.8
2017-Oct-09 02:30N 36°00' W 009°23'510.9
2017-Oct-09 02:00N 36°00' W 009°16'610.7
2017-Oct-09 01:28N 35°60' W 009°09'610.6
2017-Oct-09 00:57N 35°60' W 009°02'510.4
2017-Oct-09 00:30N 35°60' W 008°56'510.8
2017-Oct-09 00:00N 35°60' W 008°49'510.9
2017-Oct-08 23:30N 35°60' W 008°43'510.7
2017-Oct-08 23:00N 35°60' W 008°36'510.7
2017-Oct-08 22:30N 35°60' W 008°30'611.1
2017-Oct-08 22:00N 35°59' W 008°23'911.2
2017-Oct-08 21:13N 35°59' W 008°12'311.0
2017-Oct-08 20:59N 35°59' W 008°09'711.0
2017-Oct-08 20:20N 35°59' W 007°60'411.2
2017-Oct-08 19:57N 35°59' W 007°54'1010.8
2017-Oct-08 19:03N 35°59' W 007°42'211.2
2017-Oct-08 18:50N 35°59' W 007°39'411.0
2017-Oct-08 18:26N 35°59' W 007°34'611.2
2017-Oct-08 17:57N 35°59' W 007°27'511.1
2017-Oct-08 17:29N 35°59' W 007°21'711.3
2017-Oct-08 16:51N 35°59' W 007°12'411.0
2017-Oct-08 16:27N 35°59' W 007°07'272 7.1
2017-Oct-07 02:06N 36°21' W 001°31'310.4
2017-Oct-07 01:49N 36°22' W 001°27'510.4
2017-Oct-07 01:23N 36°23' W 001°22'1310.6
2017-Oct-07 00:10N 36°26' W 001°06'210.7
2017-Oct-06 23:57N 36°27' W 001°03'510.7
2017-Oct-06 23:30N 36°28' W 000°57'510.7
2017-Oct-06 23:00N 36°29' W 000°51'510.8
2017-Oct-06 22:30N 36°31' W 000°45'1111.0
2017-Oct-06 21:32N 36°34' W 000°32'011.1
2017-Oct-06 21:30N 36°34' W 000°32'811.2
2017-Oct-06 20:46N 36°36' W 000°22'811.1
2017-Oct-06 20:05N 36°39' W 000°13'511.0
2017-Oct-06 19:39N 36°40' W 000°07'211.0
2017-Oct-06 19:29N 36°41' W 000°05'510.8
2017-Oct-06 19:00N 36°42' E 000°01'610.9
2017-Oct-06 18:30N 36°43' E 000°08'610.8
2017-Oct-06 17:58N 36°44' E 000°15'611.0
2017-Oct-06 17:27N 36°46' E 000°22'511.1
2017-Oct-06 17:00N 36°47' E 000°28'611.1
2017-Oct-06 16:30N 36°48' E 000°35'611.4
2017-Oct-06 15:59N 36°50' E 000°42'611.7
2017-Oct-06 15:30N 36°52' E 000°49'711.6
2017-Oct-06 14:55N 36°53' E 000°57'  
2017-Oct-04 05:29N 36°34' E 013°42'1910.9
2017-Oct-04 03:47N 36°26' E 014°03'310.7
2017-Oct-04 03:30N 36°25' E 014°06'610.8
2017-Oct-04 02:58N 36°23' E 014°13'510.9
2017-Oct-04 02:30N 36°21' E 014°19'611.0
2017-Oct-04 02:00N 36°19' E 014°25'510.9
2017-Oct-04 01:30N 36°17' E 014°31'510.8
2017-Oct-04 01:00N 36°17' E 014°38'510.7
2017-Oct-04 00:30N 36°17' E 014°45'  
Track history (hours):
 
Tides and Currents Weather Stations Pressure Air Temp Water Temp Dewpoint Dewpoint Depression Visibility Wind Speed Wind Dir Waves Ship Positions

Lilly Bolten

Last reported at 2017-Oct-13 01:33 UTC. Time now 2017-Oct-19 22:10 UTC.
Position N 37°31' W 030°25'.

Length 180 m; draft 9.9 m.

Type: Cargo ship. MMSI: 636091829.

Date/timePositionNaut miles runAvg speedWind from/ knotsBaromVisibWave heightAir tempDewpointWater temp
2017-Oct-13 01:33N 37°31' W 030°25'1 9.7
2017-Oct-13 01:30N 37°30' W 030°25'510.0
2017-Oct-13 00:59N 37°29' W 030°18'510.1
2017-Oct-13 00:28N 37°27' W 030°12'610.4
2017-Oct-12 23:52N 37°25' W 030°05'2210.4
2017-Oct-12 21:46N 37°20' W 029°38'310.5
2017-Oct-12 21:29N 37°19' W 029°34'610.3
2017-Oct-12 20:52N 37°17' W 029°27'510.3
2017-Oct-12 20:25N 37°16' W 029°21'610.4
2017-Oct-12 19:48N 37°14' W 029°14'410.3
2017-Oct-12 19:24N 37°12' W 029°09'410.2
2017-Oct-12 19:00N 37°11' W 029°04'910.3
2017-Oct-12 18:10N 37°08' W 028°54'210.3
2017-Oct-12 17:59N 37°08' W 028°52'3510.6
2017-Oct-12 14:39N 36°57' W 028°10'310.6
2017-Oct-12 14:23N 36°56' W 028°06'1110.4
2017-Oct-12 13:20N 36°53' W 027°53'610.5
2017-Oct-12 12:46N 36°51' W 027°46'310.5
2017-Oct-12 12:26N 36°50' W 027°42'510.4
2017-Oct-12 12:00N 36°48' W 027°37'710.4
2017-Oct-12 11:17N 36°46' W 027°28'310.3
2017-Oct-12 10:59N 36°45' W 027°24'610.3
2017-Oct-12 10:23N 36°44' W 027°17'410.5
2017-Oct-12 10:00N 36°42' W 027°12'2910.6
2017-Oct-12 07:15N 36°34' W 026°37'810.7
2017-Oct-12 06:29N 36°31' W 026°27'1211.0
2017-Oct-12 05:24N 36°27' W 026°13'411.1
2017-Oct-12 05:00N 36°26' W 026°08'510.8
2017-Oct-12 04:30N 36°24' W 026°02'510.9
2017-Oct-12 04:00N 36°23' W 025°55'510.7
2017-Oct-12 03:30N 36°21' W 025°49'510.8
2017-Oct-12 03:00N 36°19' W 025°43'510.8
2017-Oct-12 02:30N 36°18' W 025°36'611.0
2017-Oct-12 02:00N 36°16' W 025°30'611.2
2017-Oct-12 01:30N 36°14' W 025°23'511.0
2017-Oct-12 01:00N 36°13' W 025°17'611.0
2017-Oct-12 00:30N 36°11' W 025°10'511.0
2017-Oct-12 00:00N 36°10' W 025°03'611.2
2017-Oct-11 23:30N 36°10' W 024°57'611.3
2017-Oct-11 23:00N 36°10' W 024°49'611.4
2017-Oct-11 22:30N 36°10' W 024°42'611.3
2017-Oct-11 22:00N 36°10' W 024°35'611.1
2017-Oct-11 21:30N 36°10' W 024°29'611.1
2017-Oct-11 21:00N 36°10' W 024°22'611.0
2017-Oct-11 20:30N 36°10' W 024°15'611.2
2017-Oct-11 20:00N 36°10' W 024°08'611.0
2017-Oct-11 19:30N 36°10' W 024°01'33910.9
2017-Oct-10 12:21N 36°04' W 017°01'4710.8
2017-Oct-10 07:59N 36°03' W 016°03'510.4
2017-Oct-10 07:29N 36°04' W 015°56'510.8
2017-Oct-10 07:00N 36°04' W 015°50'1211.0
2017-Oct-10 05:54N 36°04' W 015°35'410.8
2017-Oct-10 05:30N 36°04' W 015°30'710.8
2017-Oct-10 04:52N 36°04' W 015°21'510.9
2017-Oct-10 04:25N 36°04' W 015°15'610.7
2017-Oct-10 03:52N 36°04' W 015°08'410.7
2017-Oct-10 03:30N 36°04' W 015°03'510.9
2017-Oct-10 03:00N 36°04' W 014°56'611.1
2017-Oct-10 02:30N 36°04' W 014°49'511.0
2017-Oct-10 02:00N 36°04' W 014°43'610.8
2017-Oct-10 01:29N 36°03' W 014°36'511.1
2017-Oct-10 01:00N 36°03' W 014°29'611.1
2017-Oct-10 00:30N 36°03' W 014°22'610.8
2017-Oct-09 23:59N 36°03' W 014°15'510.7
2017-Oct-09 23:30N 36°03' W 014°09'510.9
2017-Oct-09 23:00N 36°03' W 014°02'611.1
2017-Oct-09 22:30N 36°03' W 013°55'511.1
2017-Oct-09 22:00N 36°03' W 013°48'611.0
2017-Oct-09 21:30N 36°03' W 013°42'510.9
2017-Oct-09 21:00N 36°03' W 013°35'611.0
2017-Oct-09 20:30N 36°03' W 013°28'611.2
2017-Oct-09 20:00N 36°03' W 013°21'611.0
2017-Oct-09 19:30N 36°03' W 013°14'510.7
2017-Oct-09 19:00N 36°03' W 013°08'510.7
2017-Oct-09 18:30N 36°03' W 013°01'510.7
2017-Oct-09 18:00N 36°03' W 012°54'510.9
2017-Oct-09 17:30N 36°03' W 012°48'510.8
2017-Oct-09 17:00N 36°03' W 012°41'511.0
2017-Oct-09 16:30N 36°02' W 012°34'610.9
2017-Oct-09 16:00N 36°02' W 012°27'510.7
2017-Oct-09 15:30N 36°02' W 012°21'510.8
2017-Oct-09 15:00N 36°02' W 012°14'510.9
2017-Oct-09 14:30N 36°02' W 012°08'510.9
2017-Oct-09 14:00N 36°02' W 012°01'510.5
2017-Oct-09 13:30N 36°01' W 011°54'510.8
2017-Oct-09 13:00N 36°01' W 011°48'611.1
2017-Oct-09 12:30N 36°01' W 011°41'611.2
2017-Oct-09 12:00N 36°01' W 011°34'510.8
2017-Oct-09 11:30N 36°01' W 011°27'611.0
2017-Oct-09 11:00N 36°01' W 011°20'611.0
2017-Oct-09 10:30N 36°01' W 011°14'611.3
2017-Oct-09 10:00N 36°01' W 011°07'611.3
2017-Oct-09 09:30N 36°01' W 010°60'611.5
2017-Oct-09 09:00N 35°60' W 010°53'611.4
2017-Oct-09 08:30N 35°59' W 010°46'510.6
2017-Oct-09 08:00N 36°01' W 010°39'611.7
2017-Oct-09 07:30N 36°01' W 010°32'611.7
2017-Oct-09 07:00N 36°01' W 010°25'611.6
2017-Oct-09 06:30N 36°01' W 010°18'611.4
2017-Oct-09 06:00N 36°01' W 010°11'611.2
2017-Oct-09 05:30N 36°01' W 010°04'611.4
2017-Oct-09 05:00N 36°01' W 009°57'611.4
2017-Oct-09 04:30N 36°01' W 009°50'511.0
2017-Oct-09 04:00N 36°01' W 009°43'610.9
2017-Oct-09 03:30N 36°01' W 009°36'611.4
2017-Oct-09 03:00N 36°00' W 009°29'510.8
2017-Oct-09 02:30N 36°00' W 009°23'510.9
2017-Oct-09 02:00N 36°00' W 009°16'610.7
2017-Oct-09 01:28N 35°60' W 009°09'610.6
2017-Oct-09 00:57N 35°60' W 009°02'510.4
2017-Oct-09 00:30N 35°60' W 008°56'510.8
2017-Oct-09 00:00N 35°60' W 008°49'510.9
2017-Oct-08 23:30N 35°60' W 008°43'510.7
2017-Oct-08 23:00N 35°60' W 008°36'510.7
2017-Oct-08 22:30N 35°60' W 008°30'611.1
2017-Oct-08 22:00N 35°59' W 008°23'911.2
2017-Oct-08 21:13N 35°59' W 008°12'311.0
2017-Oct-08 20:59N 35°59' W 008°09'711.0
2017-Oct-08 20:20N 35°59' W 007°60'411.2
2017-Oct-08 19:57N 35°59' W 007°54'1010.8
2017-Oct-08 19:03N 35°59' W 007°42'211.2
2017-Oct-08 18:50N 35°59' W 007°39'411.0
2017-Oct-08 18:26N 35°59' W 007°34'611.2
2017-Oct-08 17:57N 35°59' W 007°27'511.1
2017-Oct-08 17:29N 35°59' W 007°21'711.3
2017-Oct-08 16:51N 35°59' W 007°12'411.0
2017-Oct-08 16:27N 35°59' W 007°07'272 7.1
2017-Oct-07 02:06N 36°21' W 001°31'310.4
2017-Oct-07 01:49N 36°22' W 001°27'510.4
2017-Oct-07 01:23N 36°23' W 001°22'1310.6
2017-Oct-07 00:10N 36°26' W 001°06'210.7
2017-Oct-06 23:57N 36°27' W 001°03'510.7
2017-Oct-06 23:30N 36°28' W 000°57'510.7
2017-Oct-06 23:00N 36°29' W 000°51'510.8
2017-Oct-06 22:30N 36°31' W 000°45'1111.0
2017-Oct-06 21:32N 36°34' W 000°32'011.1
2017-Oct-06 21:30N 36°34' W 000°32'811.2
2017-Oct-06 20:46N 36°36' W 000°22'811.1
2017-Oct-06 20:05N 36°39' W 000°13'511.0
2017-Oct-06 19:39N 36°40' W 000°07'211.0
2017-Oct-06 19:29N 36°41' W 000°05'510.8
2017-Oct-06 19:00N 36°42' E 000°01'610.9
2017-Oct-06 18:30N 36°43' E 000°08'610.8
2017-Oct-06 17:58N 36°44' E 000°15'611.0
2017-Oct-06 17:27N 36°46' E 000°22'511.1
2017-Oct-06 17:00N 36°47' E 000°28'611.1
2017-Oct-06 16:30N 36°48' E 000°35'611.4
2017-Oct-06 15:59N 36°50' E 000°42'611.7
2017-Oct-06 15:30N 36°52' E 000°49'711.6
2017-Oct-06 14:55N 36°53' E 000°57'  
2017-Oct-04 05:29N 36°34' E 013°42'1910.9
2017-Oct-04 03:47N 36°26' E 014°03'310.7
2017-Oct-04 03:30N 36°25' E 014°06'610.8
2017-Oct-04 02:58N 36°23' E 014°13'510.9
2017-Oct-04 02:30N 36°21' E 014°19'611.0
2017-Oct-04 02:00N 36°19' E 014°25'510.9
2017-Oct-04 01:30N 36°17' E 014°31'510.8
2017-Oct-04 01:00N 36°17' E 014°38'510.7
2017-Oct-04 00:30N 36°17' E 014°45'  

Dump ship's entire track history